Riverside, CA (92509)

12:24 PM PST on March 05, 2015 (GMT -0800)
Indian Hills | Change Station
CLOSE
Current Station
Personal Weather Station
Location: Riverside, CA
Elevation: 1070 ft
Nearby Weather Stations

Elev 1070 ft 33.99 °N, 117.45 °W | Updated 12 minutes ago

Clear
Clear
70.0 °F
Feels Like 70.0 °F
N
12.0
Wind Variable Wind from East
Gusts 17.0 mph

Today
High -- | Low -- °F
--% Chance of Precip.
Yesterday
High -- | Low -- °F
Precip. -- in
6:13 AM 5:49 PM
Full, 100% visible
Pressure 30.22 in
Visibility 10.0 miles
Clouds Clear
Dew Point 22 °F
Humidity 16%
Rainfall in
Snow Depth Not available.
UV 8 out of 12
Pollen 9.10 out of 12
Air Quality Not available.
Flu Activity Not available.
METAR KRAL 051953Z VRB04KT 10SM CLR 22/M09 A3025 RMK AO2 SLP232 T02221094

More Conditions Fewer Conditions

Pressure 30.22 in
Visibility 10.0 miles
Clouds Clear
Dew Point 22 °F
Humidity 16%
Rainfall in
Snow Depth Not available.
UV 8 out of 12
Pollen 9.10 out of 12
Air Quality Not available.
Flu Activity Not available.
METAR KRAL 051953Z VRB04KT 10SM CLR 22/M09 A3025 RMK AO2 SLP232 T02221094

More Conditions Fewer Conditions

10-Day Weather Forecast

Almanac

Astronomy

Mar. 05, 2015 Rise Set
Actual Time
Civil Twilight
Nautical Twilight
Astronomical Twilight
Moon
Length of Visible Light
Length of Day
Tomorrow will be .
, % of the Moon is Illuminated

Today's Extremes

State Highs State Lows

Community

WunderPhotos

Upload Photos

1,802,943 photos uploaded!

WunderBlogs® & News

Nearby

Air Quality

  Air Quality AQ Index Pollutant
Not available.

Snow Depth

Station Depth Elevation

Earthquake Activity

City Distance Mag. Time & Date
Minimum magnitude displayed is 2.5.

Coastal Water Temperatures

Place Temperature

Nearby Weather Stations